Morgantown Municipal Walter L. Bill Hart Field
KMGW : rendu visible

Aérodrome :











RETROUVEZ-NOUS SUR...

 
LOGIN :

S'inscrire | Disclaimer

   EN    FR    IT 

 









Légende :    VFR   VFR Marginal   IFR   IFR Intensif   IFR Très Intensif
Visi : 
Plafond : 
>= 8 km
>= 3000ft
5 à 8 km
1000 à 3000 ft
1500m à 5 km
500 à 1000 ft
800 à 1500m
200 à 500 ft
< 800m
< 200 ft
Symboles :   Orages  Brouillard  Fortes neiges  Fortes précipitations  Vent > 20 kt






- Altitude de l'aérodrome : 1248 ft
- Code IATA : MGW


KMGW - Morgantown Municipal Walter L. Bill Hart Field

DERNIER METAR :
  • 242053Z 00000KT 10SM SCT041 27/17 A3008 RMK AO2 SLP176 T02720167 58014

METARs EXPIRÉS :
  • 241953Z 13004KT 10SM FEW035 BKN045 26/18 A3009 RMK AO2 SLP183 T02610178
  • 241853Z VRB04KT 10SM SCT033 27/17 A3011 RMK AO2 SLP187 T02670172

TAF KMGW
Valide du 24 à 20h jusqu'au 25 à 18h UTC


241943Z 2420/2518 15005KT P6SM SCT040
FM250000 17003KT P6SM BKN250
FM251500 15005KT P6SM SCT040
FIR KZOB / Amérique du Nord



MET'MAP, la Météo Aéronautique d'un coup d'oeil ! - Copyright ORBIFLY Décembre 2007 - Disclaimer

ORBIFLY MET'MAP TEAM :

Programmation & Développement : Alexandra Zaïnal
Sur une idée originale de : Baudouin d'Aumeries
Assistance à la programmation : Marc-Olivier Méhu
Soutien technique & logistique : Manuel Goepfert

Contact : metmap@orbifly.com




SOURCES & CREDITS :

   NOAA       Earth
Advisory